Tallahassee, FL

7:44 AM EDT on September 17, 2014 (GMT -0400)
Quincy Muni, Quincy, FL | Change Station
CLOSE
Current Station
Airport
Location: Quincy Muni, Quincy, FL,
Elevation: 226 ft
Nearby Weather Stations

Elev 226 ft 30.60 °N, 84.56 °W | Updated 14 days ago

Mostly Cloudy
Mostly Cloudy
73 °F
Feels Like 73 °F
N
2
Wind Variable Wind from NW
Gusts 8 mph

Today
High -- | Low -- °F
--% Chance of Precip.
Yesterday
High -- | Low -- °F
Precip. -- in
7:22 AM 7:39 PM
Last Quarter, 36% visible
Pressure 30.07 in
Visibility 6.0 miles
Clouds Scattered Clouds 3700 ft
Mostly Cloudy 4800 ft
Overcast 7500 ft
Dew Point 70 °F
Humidity 83%
Rainfall 0.01 in
Snow Depth Not available.
UV 0 out of 12
Pollen 7.90 out of 12
Air Quality Not available.
Flu Activity Not available.
METAR K2J9 030455Z AUTO 29004KT 6SM SCT037 BKN048 OVC075 23/21 A3007 RMK AO1 P0001

More Conditions Fewer Conditions

Pressure 30.07 in
Visibility 6.0 miles
Clouds Scattered Clouds 3700 ft
Mostly Cloudy 4800 ft
Overcast 7500 ft
Dew Point 70 °F
Humidity 83%
Rainfall 0.01 in
Snow Depth Not available.
UV 0 out of 12
Pollen 7.90 out of 12
Air Quality Not available.
Flu Activity Not available.
METAR K2J9 030455Z AUTO 29004KT 6SM SCT037 BKN048 OVC075 23/21 A3007 RMK AO1 P0001

More Conditions Fewer Conditions

10-Day Weather Forecast

Almanac

Astronomy

Sep. 17, 2014 Rise Set
Actual Time 7:22 AM EDT 7:39 PM EDT
Civil Twilight 6:58 AM EDT 8:03 PM EDT
Nautical Twilight 6:30 AM EDT 8:32 PM EDT
Astronomical Twilight 6:01 AM EDT 9:00 PM EDT
Moon 1:39 AM EDT 3:32 PM EDT
Length of Visible Light 13h 05m
Length of Day
12h 17m
Tomorrow will be 1m 49s shorter.
Last Quarter, 36% of the Moon is Illuminated
Today
Last Quarter
Sep 24
New
Oct 1
First Quarter
Oct 8
Full
Oct 15
Last Quarter

Today's Extremes

State Highs State Lows

Community

WunderPhotos

Upload Photos

1,754,002 photos uploaded!

Nearby

Snow Depth

Station Depth Elevation
No new snow has been reported.

Earthquake Activity

City Distance Mag. Time & Date
No recent earthquake activity has been reported nearby.
Minimum magnitude displayed is 2.5.

Coastal Water Temperatures

Place Temperature
Apalachicola, FL 82.9 °F
Panama City, FL 86.0 °F

Nearby Weather Stations